sensor_id;sensor_type;location;lat;lon;timestamp;P1;durP1;ratioP1;P2;durP2;ratioP2
22521;SDS011;11427;51.062;17.044;2023-02-26T00:13:18;5.70;;;3.70;;
22521;SDS011;11427;51.062;17.044;2023-02-26T00:28:22;6.10;;;3.80;;
22521;SDS011;11427;51.062;17.044;2023-02-26T00:43:25;7.32;;;3.95;;
22521;SDS011;11427;51.062;17.044;2023-02-26T00:58:27;8.77;;;3.70;;
22521;SDS011;11427;51.062;17.044;2023-02-26T01:13:30;4.90;;;4.07;;
22521;SDS011;11427;51.062;17.044;2023-02-26T01:28:32;11.57;;;6.15;;
22521;SDS011;11427;51.062;17.044;2023-02-26T01:44:40;5.43;;;4.03;;
22521;SDS011;11427;51.062;17.044;2023-02-26T01:59:24;4.70;;;3.95;;
22521;SDS011;11427;51.062;17.044;2023-02-26T02:14:30;6.00;;;4.13;;
22521;SDS011;11427;51.062;17.044;2023-02-26T02:29:52;6.05;;;4.00;;
22521;SDS011;11427;51.062;17.044;2023-02-26T02:45:06;4.80;;;4.07;;
22521;SDS011;11427;51.062;17.044;2023-02-26T03:00:14;7.07;;;3.78;;
22521;SDS011;11427;51.062;17.044;2023-02-26T03:15:22;4.78;;;3.70;;
22521;SDS011;11427;51.062;17.044;2023-02-26T03:30:39;5.85;;;3.97;;
22521;SDS011;11427;51.062;17.044;2023-02-26T03:45:49;3.95;;;3.40;;
22521;SDS011;11427;51.062;17.044;2023-02-26T04:00:57;4.85;;;3.75;;
22521;SDS011;11427;51.062;17.044;2023-02-26T04:16:03;3.58;;;3.05;;
22521;SDS011;11427;51.062;17.044;2023-02-26T04:31:06;4.50;;;3.42;;
22521;SDS011;11427;51.062;17.044;2023-02-26T04:46:08;5.22;;;4.10;;
22521;SDS011;11427;51.062;17.044;2023-02-26T05:01:10;5.78;;;3.15;;
22521;SDS011;11427;51.062;17.044;2023-02-26T05:16:14;3.42;;;3.13;;
22521;SDS011;11427;51.062;17.044;2023-02-26T05:31:16;4.70;;;3.17;;
22521;SDS011;11427;51.062;17.044;2023-02-26T05:46:18;4.35;;;2.83;;
22521;SDS011;11427;51.062;17.044;2023-02-26T06:01:20;4.53;;;3.03;;
22521;SDS011;11427;51.062;17.044;2023-02-26T06:16:22;4.20;;;3.15;;
22521;SDS011;11427;51.062;17.044;2023-02-26T06:31:25;5.68;;;3.25;;
22521;SDS011;11427;51.062;17.044;2023-02-26T06:46:28;4.28;;;3.75;;
22521;SDS011;11427;51.062;17.044;2023-02-26T07:01:30;6.32;;;3.70;;
22521;SDS011;11427;51.062;17.044;2023-02-26T07:16:32;4.05;;;3.58;;
22521;SDS011;11427;51.062;17.044;2023-02-26T07:31:34;4.70;;;3.33;;
22521;SDS011;11427;51.062;17.044;2023-02-26T07:46:37;7.50;;;4.00;;
22521;SDS011;11427;51.062;17.044;2023-02-26T08:01:39;5.18;;;3.60;;
22521;SDS011;11427;51.062;17.044;2023-02-26T08:16:41;4.85;;;3.65;;
22521;SDS011;11427;51.062;17.044;2023-02-26T08:31:43;7.70;;;4.40;;
22521;SDS011;11427;51.062;17.044;2023-02-26T08:46:45;6.15;;;3.55;;
22521;SDS011;11427;51.062;17.044;2023-02-26T09:01:47;4.30;;;3.63;;
22521;SDS011;11427;51.062;17.044;2023-02-26T09:16:50;7.90;;;4.20;;
22521;SDS011;11427;51.062;17.044;2023-02-26T09:31:51;4.82;;;3.92;;
22521;SDS011;11427;51.062;17.044;2023-02-26T10:02:35;6.65;;;4.30;;
22521;SDS011;11427;51.062;17.044;2023-02-26T11:03:46;9.13;;;5.43;;
22521;SDS011;11427;51.062;17.044;2023-02-26T11:18:52;6.30;;;4.55;;
22521;SDS011;11427;51.062;17.044;2023-02-26T11:34:00;4.68;;;3.50;;
22521;SDS011;11427;51.062;17.044;2023-02-26T11:49:05;7.45;;;4.97;;
22521;SDS011;11427;51.062;17.044;2023-02-26T12:04:08;6.90;;;4.90;;
22521;SDS011;11427;51.062;17.044;2023-02-26T12:19:16;3.13;;;2.50;;
22521;SDS011;11427;51.062;17.044;2023-02-26T13:05:40;10.00;;;6.38;;
22521;SDS011;11427;51.062;17.044;2023-02-26T13:21:08;12.27;;;7.32;;
22521;SDS011;11427;51.062;17.044;2023-02-26T13:36:16;9.02;;;4.57;;
22521;SDS011;11427;51.062;17.044;2023-02-26T13:51:35;5.28;;;3.03;;
22521;SDS011;11427;51.062;17.044;2023-02-26T14:06:41;2.95;;;1.80;;
22521;SDS011;11427;51.062;17.044;2023-02-26T14:36:51;7.93;;;4.00;;
22521;SDS011;11427;51.062;17.044;2023-02-26T15:38:29;11.55;;;5.22;;
22521;SDS011;11427;51.062;17.044;2023-02-26T15:53:51;8.02;;;4.85;;
22521;SDS011;11427;51.062;17.044;2023-02-26T16:08:55;10.68;;;4.40;;
22521;SDS011;11427;51.062;17.044;2023-02-26T16:23:58;7.32;;;4.25;;
22521;SDS011;11427;51.062;17.044;2023-02-26T16:54:52;10.38;;;6.35;;
22521;SDS011;11427;51.062;17.044;2023-02-26T17:09:38;11.15;;;6.60;;
22521;SDS011;11427;51.062;17.044;2023-02-26T17:24:43;11.68;;;7.25;;
22521;SDS011;11427;51.062;17.044;2023-02-26T17:39:49;16.38;;;9.63;;
22521;SDS011;11427;51.062;17.044;2023-02-26T17:54:51;22.70;;;12.52;;
22521;SDS011;11427;51.062;17.044;2023-02-26T18:09:53;27.10;;;13.23;;
22521;SDS011;11427;51.062;17.044;2023-02-26T18:24:55;20.05;;;9.60;;
22521;SDS011;11427;51.062;17.044;2023-02-26T18:39:57;14.25;;;8.38;;
22521;SDS011;11427;51.062;17.044;2023-02-26T18:54:59;17.67;;;8.02;;
22521;SDS011;11427;51.062;17.044;2023-02-26T19:10:04;9.65;;;5.47;;
22521;SDS011;11427;51.062;17.044;2023-02-26T19:25:10;10.57;;;5.22;;
22521;SDS011;11427;51.062;17.044;2023-02-26T19:40:12;9.10;;;4.88;;
22521;SDS011;11427;51.062;17.044;2023-02-26T19:55:19;7.43;;;4.90;;
22521;SDS011;11427;51.062;17.044;2023-02-26T20:10:22;11.88;;;4.80;;
22521;SDS011;11427;51.062;17.044;2023-02-26T20:25:24;11.18;;;5.70;;
22521;SDS011;11427;51.062;17.044;2023-02-26T20:40:26;15.45;;;6.57;;
22521;SDS011;11427;51.062;17.044;2023-02-26T20:55:28;14.20;;;6.55;;
22521;SDS011;11427;51.062;17.044;2023-02-26T21:10:30;14.82;;;7.30;;
22521;SDS011;11427;51.062;17.044;2023-02-26T21:25:33;14.13;;;6.53;;
22521;SDS011;11427;51.062;17.044;2023-02-26T21:40:35;15.85;;;7.40;;
22521;SDS011;11427;51.062;17.044;2023-02-26T21:55:37;16.58;;;7.30;;
22521;SDS011;11427;51.062;17.044;2023-02-26T22:10:39;20.17;;;9.23;;
22521;SDS011;11427;51.062;17.044;2023-02-26T22:25:41;19.10;;;7.95;;
22521;SDS011;11427;51.062;17.044;2023-02-26T22:40:44;18.95;;;8.43;;
22521;SDS011;11427;51.062;17.044;2023-02-26T22:55:46;21.52;;;10.32;;
22521;SDS011;11427;51.062;17.044;2023-02-26T23:10:48;25.30;;;10.50;;
22521;SDS011;11427;51.062;17.044;2023-02-26T23:25:50;24.30;;;11.10;;
22521;SDS011;11427;51.062;17.044;2023-02-26T23:40:56;21.50;;;10.88;;
22521;SDS011;11427;51.062;17.044;2023-02-26T23:55:58;18.13;;;9.55;;
